createdAt,value
2023-05-03T00:00:08.954Z,3.10
2023-05-03T00:02:58.100Z,3.28
2023-05-03T00:05:26.959Z,6.10
2023-05-03T00:07:57.137Z,5.10
2023-05-03T00:10:26.014Z,4.20
2023-05-03T00:12:55.556Z,5.43
2023-05-03T00:15:23.768Z,5.25
2023-05-03T00:17:55.932Z,4.90
2023-05-03T00:20:25.352Z,4.30
2023-05-03T00:22:55.695Z,4.03
2023-05-03T00:25:23.962Z,3.78
2023-05-03T00:27:52.546Z,4.38
2023-05-03T00:30:29.396Z,7.07
2023-05-03T00:33:23.729Z,4.15
2023-05-03T00:35:52.320Z,5.30
2023-05-03T00:38:21.690Z,5.13
2023-05-03T00:40:56.405Z,5.70
2023-05-03T00:43:25.417Z,5.68
2023-05-03T00:45:59.343Z,5.78
2023-05-03T00:48:37.614Z,5.25
2023-05-03T00:51:09.299Z,4.95
2023-05-03T00:56:50.462Z,5.72
2023-05-03T00:59:26.000Z,5.67
2023-05-03T01:02:32.947Z,5.53
2023-05-03T01:05:23.145Z,5.35
2023-05-03T01:12:01.106Z,5.65
2023-05-03T01:14:41.396Z,5.80
2023-05-03T01:17:13.049Z,4.82
2023-05-03T01:19:51.838Z,7.03
2023-05-03T01:22:38.062Z,7.60
2023-05-03T01:25:11.627Z,9.25
2023-05-03T01:27:41.817Z,10.23
2023-05-03T01:30:12.992Z,11.02
2023-05-03T01:33:14.008Z,10.68
2023-05-03T01:36:19.785Z,9.95
2023-05-03T01:38:49.359Z,9.40
2023-05-03T01:41:19.800Z,9.80
2023-05-03T01:43:50.150Z,10.13
2023-05-03T01:46:18.512Z,9.80
2023-05-03T01:48:48.297Z,10.45
2023-05-03T01:51:16.686Z,9.60
2023-05-03T01:53:45.409Z,8.88
2023-05-03T01:56:13.714Z,7.60
2023-05-03T01:58:42.486Z,6.65
2023-05-03T02:01:11.171Z,6.82
2023-05-03T02:03:39.802Z,7.30
2023-05-03T02:06:08.290Z,5.55
2023-05-03T02:08:37.101Z,5.30
2023-05-03T02:11:06.251Z,5.53
2023-05-03T02:13:36.734Z,4.78
2023-05-03T02:16:05.310Z,4.63
2023-05-03T02:18:33.836Z,5.03
2023-05-03T02:21:02.314Z,4.40
2023-05-03T02:23:31.236Z,4.15
2023-05-03T02:25:59.525Z,4.13
2023-05-03T02:28:28.101Z,4.35
2023-05-03T02:30:56.431Z,3.72
2023-05-03T02:33:25.750Z,3.90
2023-05-03T02:35:54.239Z,4.18
2023-05-03T02:38:23.324Z,3.88
2023-05-03T02:40:52.233Z,4.53
2023-05-03T02:43:22.517Z,4.40
2023-05-03T02:45:51.056Z,4.30
2023-05-03T02:48:19.975Z,4.43
2023-05-03T02:50:48.352Z,4.70
2023-05-03T02:53:17.030Z,5.30
2023-05-03T02:55:46.759Z,5.45
2023-05-03T02:58:15.774Z,6.65
2023-05-03T03:00:43.965Z,6.50
2023-05-03T03:03:12.677Z,23.42
2023-05-03T03:05:41.057Z,29.13
2023-05-03T03:08:09.738Z,30.25
2023-05-03T03:10:39.104Z,32.92
2023-05-03T03:13:07.666Z,25.17
2023-05-03T03:15:41.327Z,20.02
2023-05-03T03:18:10.163Z,12.18
2023-05-03T03:20:38.358Z,9.20
2023-05-03T03:23:07.752Z,8.88
2023-05-03T03:25:35.958Z,6.60
2023-05-03T03:28:05.002Z,8.07
2023-05-03T03:30:33.772Z,7.57
2023-05-03T03:33:18.464Z,7.20
2023-05-03T03:35:47.050Z,6.50
2023-05-03T03:38:17.964Z,4.80
2023-05-03T03:40:56.457Z,5.35
2023-05-03T03:43:25.648Z,4.45
2023-05-03T03:45:54.288Z,4.53
2023-05-03T03:48:23.487Z,4.10
2023-05-03T03:50:52.371Z,6.03
2023-05-03T03:53:24.973Z,5.90
2023-05-03T03:55:53.216Z,6.03
2023-05-03T03:58:22.046Z,6.43
2023-05-03T04:00:51.566Z,7.57
2023-05-03T04:03:23.324Z,6.95
2023-05-03T04:05:51.676Z,7.85
2023-05-03T04:08:22.508Z,7.82
2023-05-03T04:10:51.542Z,10.48
2023-05-03T04:13:21.012Z,13.35
2023-05-03T04:15:56.099Z,14.50
2023-05-03T04:18:25.500Z,33.15
2023-05-03T04:20:56.264Z,40.78
2023-05-03T04:23:25.516Z,37.53
2023-05-03T04:25:53.864Z,48.88
2023-05-03T04:30:57.593Z,39.28
2023-05-03T04:33:29.912Z,35.90
2023-05-03T04:36:04.641Z,35.33
2023-05-03T04:38:34.699Z,24.87
2023-05-03T04:41:04.777Z,19.17
2023-05-03T04:43:34.886Z,15.40
2023-05-03T04:46:06.622Z,11.85
2023-05-03T04:48:36.530Z,11.88
2023-05-03T04:51:05.258Z,8.45
2023-05-03T04:53:33.971Z,7.90
2023-05-03T04:56:08.440Z,6.70
2023-05-03T04:58:40.110Z,7.00
2023-05-03T05:01:09.317Z,6.63
2023-05-03T05:03:38.106Z,6.60
2023-05-03T05:06:12.678Z,6.72
2023-05-03T05:08:43.284Z,6.90
2023-05-03T05:11:14.824Z,6.03
2023-05-03T05:13:43.843Z,5.70
2023-05-03T05:16:13.445Z,6.18
2023-05-03T05:18:46.233Z,5.88
2023-05-03T05:21:18.349Z,6.50
2023-05-03T05:23:47.346Z,6.20
2023-05-03T05:26:16.390Z,5.90
2023-05-03T05:28:45.062Z,5.57
2023-05-03T05:31:13.573Z,5.40
2023-05-03T05:33:42.775Z,4.60
2023-05-03T05:36:12.747Z,5.00
2023-05-03T05:38:42.589Z,5.55
2023-05-03T05:41:11.360Z,6.13
2023-05-03T05:43:41.979Z,5.80
2023-05-03T05:46:11.256Z,5.40
2023-05-03T05:48:40.393Z,5.80
2023-05-03T05:51:09.374Z,5.40
2023-05-03T05:53:38.340Z,5.47
2023-05-03T05:56:06.878Z,5.50
2023-05-03T05:58:37.634Z,5.00
2023-05-03T06:01:07.367Z,4.85
2023-05-03T06:03:38.965Z,4.28
2023-05-03T06:06:09.489Z,5.15
2023-05-03T06:08:38.589Z,5.30
2023-05-03T06:11:07.928Z,4.80
2023-05-03T06:13:38.785Z,3.95
2023-05-03T06:16:09.076Z,4.20
2023-05-03T06:18:39.206Z,4.20
2023-05-03T06:21:09.836Z,4.45
2023-05-03T06:23:40.169Z,4.15
2023-05-03T06:26:10.821Z,3.70
2023-05-03T06:28:42.333Z,4.30
2023-05-03T06:31:10.862Z,4.18
2023-05-03T06:33:39.840Z,4.22
2023-05-03T06:36:09.444Z,4.05
2023-05-03T06:38:40.006Z,3.55
2023-05-03T06:41:08.442Z,3.13
2023-05-03T06:43:37.103Z,3.38
2023-05-03T06:46:07.381Z,3.03
2023-05-03T06:48:36.456Z,2.80
2023-05-03T06:51:06.108Z,2.80
2023-05-03T06:53:34.714Z,3.08
2023-05-03T06:56:05.272Z,3.10
2023-05-03T06:58:34.466Z,3.03
2023-05-03T07:01:05.178Z,2.65
2023-05-03T07:03:33.776Z,2.70
2023-05-03T07:06:02.096Z,2.10
2023-05-03T07:08:31.577Z,2.70
2023-05-03T07:10:59.928Z,2.60
2023-05-03T07:13:28.461Z,2.42
2023-05-03T07:15:57.555Z,2.40
2023-05-03T07:18:26.188Z,2.30
2023-05-03T07:20:54.443Z,2.50
2023-05-03T07:23:22.983Z,3.20
2023-05-03T07:25:51.723Z,2.58
2023-05-03T07:28:20.674Z,2.53
2023-05-03T07:30:49.092Z,2.40
2023-05-03T07:33:18.001Z,3.10
2023-05-03T07:35:47.216Z,2.50
2023-05-03T07:38:19.200Z,2.38
2023-05-03T07:40:47.596Z,2.90
2023-05-03T07:43:16.847Z,2.97
2023-05-03T07:45:45.099Z,2.70
2023-05-03T07:48:14.227Z,2.28
2023-05-03T07:50:44.209Z,2.85
2023-05-03T07:53:13.003Z,2.80
2023-05-03T07:55:41.901Z,3.00
2023-05-03T07:58:10.643Z,2.90
2023-05-03T08:00:39.107Z,2.60
2023-05-03T08:03:07.934Z,2.65
2023-05-03T08:05:36.888Z,2.50
2023-05-03T08:08:05.999Z,2.40
2023-05-03T08:10:38.000Z,2.45
2023-05-03T08:13:07.192Z,2.70
2023-05-03T08:15:35.722Z,2.17
2023-05-03T08:18:04.649Z,2.85
2023-05-03T08:20:36.900Z,2.63
2023-05-03T08:23:05.461Z,2.58
2023-05-03T08:25:34.358Z,2.33
2023-05-03T08:28:03.329Z,2.30
2023-05-03T08:30:31.833Z,2.53
2023-05-03T08:33:00.424Z,1.88
2023-05-03T08:35:28.716Z,2.47
2023-05-03T08:38:00.298Z,2.30
2023-05-03T08:40:29.354Z,2.85
2023-05-03T08:43:07.011Z,2.67
2023-05-03T08:45:36.166Z,2.65
2023-05-03T08:48:07.051Z,2.20
2023-05-03T08:50:42.213Z,2.40
2023-05-03T08:53:11.755Z,1.65
2023-05-03T08:55:40.902Z,1.67
2023-05-03T08:58:13.416Z,1.80
2023-05-03T09:00:45.241Z,1.90
2023-05-03T09:05:44.493Z,2.13
2023-05-03T09:08:14.748Z,1.88
2023-05-03T09:10:43.481Z,2.30
2023-05-03T09:13:12.370Z,2.10
2023-05-03T09:15:40.898Z,2.28
2023-05-03T09:18:11.925Z,1.85
2023-05-03T09:20:41.975Z,1.88
2023-05-03T09:23:10.710Z,1.48
2023-05-03T09:25:49.576Z,2.20
2023-05-03T09:28:20.302Z,1.98
2023-05-03T09:30:49.822Z,2.10
2023-05-03T09:33:29.816Z,1.98
2023-05-03T09:36:00.403Z,1.73
2023-05-03T09:38:31.307Z,2.20
2023-05-03T09:41:00.040Z,2.25
2023-05-03T09:43:29.525Z,1.90
2023-05-03T09:46:10.335Z,1.02
2023-05-03T09:48:40.106Z,2.20
2023-05-03T09:51:10.432Z,2.42
2023-05-03T09:53:40.532Z,2.00
2023-05-03T09:56:14.146Z,2.08
2023-05-03T09:58:44.006Z,1.98
2023-05-03T10:01:14.773Z,1.88
2023-05-03T10:03:45.306Z,1.98
2023-05-03T10:09:45.848Z,1.85
2023-05-03T10:12:37.592Z,2.13
2023-05-03T10:15:10.819Z,1.65
2023-05-03T10:17:47.329Z,2.53
2023-05-03T10:20:27.561Z,1.90
2023-05-03T10:23:22.262Z,1.90
2023-05-03T10:26:06.397Z,2.28
2023-05-03T10:28:35.048Z,1.90
2023-05-03T10:31:48.557Z,2.17
2023-05-03T10:34:22.000Z,1.75
2023-05-03T10:37:16.260Z,1.92
2023-05-03T10:39:46.736Z,2.20
2023-05-03T10:42:45.409Z,2.78
2023-05-03T10:45:38.775Z,2.63
2023-05-03T10:48:13.247Z,2.63
2023-05-03T10:51:27.884Z,2.63
2023-05-03T10:53:56.740Z,2.08
2023-05-03T10:59:55.147Z,1.58
2023-05-03T11:02:31.221Z,1.90
2023-05-03T11:05:06.095Z,2.15
2023-05-03T11:08:10.182Z,1.98
2023-05-03T11:10:39.610Z,1.40
2023-05-03T11:13:08.146Z,2.10
2023-05-03T11:15:36.887Z,2.10
2023-05-03T11:18:11.368Z,2.00
2023-05-03T11:20:40.078Z,2.03
2023-05-03T11:23:13.037Z,1.88
2023-05-03T11:25:41.938Z,1.80
2023-05-03T11:28:10.506Z,2.00
2023-05-03T11:30:39.238Z,1.90
2023-05-03T11:33:07.838Z,2.50
2023-05-03T11:35:36.612Z,2.00
2023-05-03T11:38:05.842Z,2.00
2023-05-03T11:40:34.569Z,2.00
2023-05-03T11:43:03.104Z,2.00
2023-05-03T11:45:44.417Z,1.90
2023-05-03T11:48:14.461Z,2.80
2023-05-03T11:50:56.956Z,2.10
2023-05-03T11:53:26.506Z,2.22
2023-05-03T11:55:55.302Z,2.50
2023-05-03T11:58:27.298Z,2.20
2023-05-03T12:00:57.269Z,1.85
2023-05-03T12:03:32.185Z,1.88
2023-05-03T12:06:02.779Z,3.10
2023-05-03T12:08:36.477Z,2.20
2023-05-03T12:11:07.267Z,2.40
2023-05-03T12:13:39.784Z,2.40
2023-05-03T12:16:14.276Z,1.92
2023-05-03T12:19:03.150Z,2.17
2023-05-03T12:24:24.521Z,1.90
2023-05-03T12:26:53.616Z,1.90
2023-05-03T12:29:23.664Z,1.80
2023-05-03T12:31:52.829Z,1.92
2023-05-03T12:34:33.664Z,2.22
2023-05-03T12:37:05.362Z,2.40
2023-05-03T12:39:39.298Z,2.05
2023-05-03T12:42:13.693Z,2.65
2023-05-03T12:45:03.895Z,7.35
2023-05-03T12:47:36.486Z,6.20
2023-05-03T12:50:06.210Z,2.80
2023-05-03T12:52:38.722Z,1.92
2023-05-03T12:55:11.065Z,3.00
2023-05-03T12:57:42.574Z,2.20
2023-05-03T13:00:15.530Z,2.40
2023-05-03T13:07:55.545Z,1.85
2023-05-03T13:10:27.139Z,1.80
2023-05-03T13:12:57.071Z,1.90
2023-05-03T13:15:25.454Z,2.03
2023-05-03T13:17:54.573Z,2.00
2023-05-03T13:20:23.111Z,1.73
2023-05-03T13:22:52.012Z,1.92
2023-05-03T13:25:20.287Z,2.00
2023-05-03T13:27:50.397Z,1.80
2023-05-03T13:30:22.537Z,1.70
2023-05-03T13:32:51.237Z,1.70
2023-05-03T13:35:20.243Z,8.70
2023-05-03T13:37:48.868Z,3.40
2023-05-03T13:40:17.153Z,1.75
2023-05-03T13:42:46.174Z,2.25
2023-05-03T13:45:16.391Z,1.98
2023-05-03T13:50:16.613Z,2.15
2023-05-03T13:52:45.400Z,1.70
2023-05-03T13:55:13.808Z,2.05
2023-05-03T13:57:42.361Z,1.83
2023-05-03T14:00:11.260Z,1.90
2023-05-03T14:02:40.088Z,2.30
2023-05-03T14:05:33.335Z,1.95
2023-05-03T14:08:02.003Z,2.45
2023-05-03T14:10:30.214Z,1.98
2023-05-03T14:13:01.579Z,2.08
2023-05-03T14:15:33.970Z,2.22
2023-05-03T14:18:04.834Z,2.00
2023-05-03T14:20:35.043Z,1.92
2023-05-03T14:23:06.235Z,2.53
2023-05-03T14:25:47.528Z,2.28
2023-05-03T14:28:16.554Z,2.03
2023-05-03T14:31:11.607Z,1.90
2023-05-03T14:33:40.548Z,2.10
2023-05-03T14:36:09.472Z,1.73
2023-05-03T14:38:41.798Z,1.83
2023-05-03T14:41:10.825Z,3.67
2023-05-03T14:43:43.738Z,1.70
2023-05-03T14:46:29.705Z,1.70
2023-05-03T14:49:02.501Z,1.85
2023-05-03T14:55:35.018Z,1.70
2023-05-03T14:58:06.691Z,2.03
2023-05-03T15:06:40.873Z,3.58
2023-05-03T15:09:20.426Z,2.00
2023-05-03T15:11:49.597Z,1.75
2023-05-03T15:14:29.135Z,2.40
2023-05-03T15:16:58.312Z,1.88
2023-05-03T15:19:54.992Z,3.70
2023-05-03T15:22:24.202Z,1.77
2023-05-03T15:25:27.270Z,2.42
2023-05-03T15:27:57.107Z,2.20
2023-05-03T15:30:32.306Z,2.17
2023-05-03T15:33:02.360Z,2.35
2023-05-03T15:35:31.438Z,2.15
2023-05-03T15:38:01.965Z,2.25
2023-05-03T15:44:10.001Z,1.70
2023-05-03T15:46:42.183Z,1.98
2023-05-03T15:49:12.198Z,3.00
2023-05-03T15:54:50.248Z,2.35
2023-05-03T15:57:18.759Z,2.20
2023-05-03T15:59:55.686Z,2.67
2023-05-03T16:02:28.264Z,2.08
2023-05-03T16:05:23.235Z,2.40
2023-05-03T16:08:26.724Z,2.30
2023-05-03T16:11:13.525Z,3.10
2023-05-03T16:13:43.428Z,2.50
2023-05-03T16:16:12.555Z,2.50
2023-05-03T16:18:41.050Z,2.38
2023-05-03T16:21:11.806Z,2.50
2023-05-03T16:23:48.505Z,2.53
2023-05-03T16:26:19.360Z,2.65
2023-05-03T16:28:49.570Z,2.08
2023-05-03T16:31:21.461Z,2.08
2023-05-03T16:33:52.544Z,1.75
2023-05-03T16:36:21.442Z,2.10
2023-05-03T16:38:49.782Z,2.58
2023-05-03T16:41:18.623Z,3.17
2023-05-03T16:43:47.212Z,2.55
2023-05-03T16:46:16.112Z,2.53
2023-05-03T16:48:44.367Z,2.17
2023-05-03T16:51:13.245Z,2.35
2023-05-03T16:53:44.787Z,2.65
2023-05-03T16:56:13.747Z,2.50
2023-05-03T16:58:42.074Z,2.53
2023-05-03T17:01:11.012Z,2.28
2023-05-03T17:03:40.562Z,4.15
2023-05-03T17:06:10.960Z,5.22
2023-05-03T17:08:40.018Z,3.60
2023-05-03T17:11:12.511Z,2.80
2023-05-03T17:14:05.976Z,2.88
2023-05-03T17:16:34.752Z,2.88
2023-05-03T17:19:03.009Z,2.70
2023-05-03T17:21:31.792Z,3.30
2023-05-03T17:24:00.231Z,4.00
2023-05-03T17:26:29.300Z,5.35
2023-05-03T17:28:57.657Z,5.97
2023-05-03T17:31:26.515Z,8.23
2023-05-03T17:33:54.812Z,9.60
2023-05-03T17:36:23.478Z,4.70
2023-05-03T17:38:52.593Z,4.00
2023-05-03T17:41:24.678Z,3.25
2023-05-03T17:43:53.078Z,3.60
2023-05-03T17:46:22.504Z,5.65
2023-05-03T17:48:52.176Z,9.57
2023-05-03T17:51:20.944Z,13.77
2023-05-03T17:53:49.204Z,8.20
2023-05-03T17:56:18.992Z,7.82
2023-05-03T17:58:47.480Z,8.20
2023-05-03T18:01:16.251Z,9.68
2023-05-03T18:03:46.333Z,7.90
2023-05-03T18:06:16.228Z,10.98
2023-05-03T18:08:44.506Z,10.95
2023-05-03T18:11:13.131Z,11.45
2023-05-03T18:13:41.523Z,9.50
2023-05-03T18:16:10.452Z,7.68
2023-05-03T18:18:39.017Z,11.35
2023-05-03T18:21:11.782Z,15.93
2023-05-03T18:26:10.006Z,14.50
2023-05-03T18:28:38.443Z,14.25
2023-05-03T18:31:07.444Z,15.48
2023-05-03T18:33:35.946Z,14.65
2023-05-03T18:36:15.974Z,14.30
2023-05-03T18:38:55.636Z,15.00
2023-05-03T18:41:34.100Z,16.65
2023-05-03T18:44:03.923Z,18.83
2023-05-03T18:46:32.897Z,15.82
2023-05-03T18:49:03.867Z,14.43
2023-05-03T18:51:33.009Z,14.85
2023-05-03T18:54:01.586Z,13.82
2023-05-03T18:56:32.257Z,13.23
2023-05-03T18:59:00.899Z,13.38
2023-05-03T19:01:30.221Z,13.48
2023-05-03T19:03:58.997Z,14.60
2023-05-03T19:06:28.703Z,14.27
2023-05-03T19:09:01.699Z,15.98
2023-05-03T19:11:34.613Z,17.92
2023-05-03T19:14:08.190Z,16.90
2023-05-03T19:17:02.999Z,15.80
2023-05-03T19:19:35.486Z,19.60
2023-05-03T19:22:04.843Z,17.70
2023-05-03T19:24:33.106Z,11.95
2023-05-03T19:27:02.537Z,10.68
2023-05-03T19:29:31.213Z,10.77
2023-05-03T19:31:59.805Z,12.77
2023-05-03T19:34:30.962Z,15.25
2023-05-03T19:36:59.647Z,19.60
2023-05-03T19:39:27.933Z,19.20
2023-05-03T19:41:56.748Z,14.48
2023-05-03T19:44:28.444Z,12.02
2023-05-03T19:46:57.696Z,9.48
2023-05-03T19:49:26.461Z,8.30
2023-05-03T19:52:11.816Z,9.88
2023-05-03T19:54:43.250Z,9.13
2023-05-03T19:57:44.721Z,12.95
2023-05-03T20:00:22.831Z,12.52
2023-05-03T20:02:51.634Z,11.38
2023-05-03T20:05:19.998Z,10.50
2023-05-03T20:08:15.936Z,8.10
2023-05-03T20:10:46.545Z,7.80
2023-05-03T20:13:17.349Z,9.80
2023-05-03T20:15:45.845Z,9.05
2023-05-03T20:18:14.771Z,17.00
2023-05-03T20:20:43.149Z,13.60
2023-05-03T20:23:12.288Z,12.57
2023-05-03T20:25:40.643Z,12.35
2023-05-03T20:28:09.347Z,12.15
2023-05-03T20:30:37.761Z,12.50
2023-05-03T20:33:06.704Z,14.45
2023-05-03T20:35:37.268Z,17.77
2023-05-03T20:38:06.511Z,17.40
2023-05-03T20:40:35.632Z,19.25
2023-05-03T20:43:04.498Z,20.60
2023-05-03T20:45:33.027Z,19.70
2023-05-03T20:48:01.707Z,21.33
2023-05-03T20:50:30.711Z,25.33
2023-05-03T20:52:59.852Z,30.63
2023-05-03T20:55:28.136Z,29.70
2023-05-03T20:57:57.046Z,28.38
2023-05-03T21:00:28.183Z,27.50
2023-05-03T21:02:57.079Z,26.77
2023-05-03T21:05:25.733Z,24.10
2023-05-03T21:07:54.263Z,25.25
2023-05-03T21:10:22.723Z,21.45
2023-05-03T21:12:51.445Z,22.00
2023-05-03T21:15:19.729Z,22.65
2023-05-03T21:17:48.357Z,28.67
2023-05-03T21:20:16.723Z,42.10
2023-05-03T21:22:45.682Z,25.88
2023-05-03T21:25:13.958Z,26.02
2023-05-03T21:27:42.563Z,26.98
2023-05-03T21:30:11.100Z,23.77
2023-05-03T21:32:39.782Z,25.35
2023-05-03T21:35:09.330Z,23.08
2023-05-03T21:37:37.966Z,22.85
2023-05-03T21:40:07.348Z,23.55
2023-05-03T21:42:36.117Z,22.02
2023-05-03T21:45:04.686Z,23.55
2023-05-03T21:47:33.291Z,24.17
2023-05-03T21:50:01.860Z,25.17
2023-05-03T21:52:30.860Z,25.23
2023-05-03T21:55:01.862Z,27.60
2023-05-03T21:57:32.904Z,34.65
2023-05-03T22:00:01.436Z,34.60
2023-05-03T22:02:30.177Z,35.05
2023-05-03T22:04:59.123Z,35.75
2023-05-03T22:07:27.906Z,34.70
2023-05-03T22:09:56.091Z,33.13
2023-05-03T22:12:25.257Z,30.88
2023-05-03T22:14:53.603Z,27.15
2023-05-03T22:17:22.611Z,27.35
2023-05-03T22:19:50.964Z,25.48
2023-05-03T22:22:19.578Z,27.60
2023-05-03T22:24:53.603Z,26.90
2023-05-03T22:27:22.381Z,29.35
2023-05-03T22:29:50.668Z,33.28
2023-05-03T22:32:19.369Z,57.70
2023-05-03T22:34:47.671Z,66.68
2023-05-03T22:37:16.301Z,135.77
2023-05-03T22:39:44.490Z,124.80
2023-05-03T22:42:13.259Z,115.38
2023-05-03T22:44:41.473Z,115.03
2023-05-03T22:47:10.664Z,100.63
2023-05-03T22:49:38.838Z,78.10
2023-05-03T22:52:09.279Z,94.10
2023-05-03T22:54:37.899Z,96.60
2023-05-03T22:57:06.605Z,94.30
2023-05-03T22:59:34.886Z,88.07
2023-05-03T23:02:04.025Z,86.35
2023-05-03T23:04:32.324Z,79.85
2023-05-03T23:07:01.122Z,68.68
2023-05-03T23:09:29.367Z,58.05
2023-05-03T23:11:58.959Z,53.47
2023-05-03T23:14:27.186Z,53.05
2023-05-03T23:16:55.821Z,55.45
2023-05-03T23:19:24.032Z,51.97
2023-05-03T23:21:52.685Z,33.00
2023-05-03T23:24:20.910Z,34.25
2023-05-03T23:26:49.499Z,23.05
2023-05-03T23:29:18.196Z,13.13
2023-05-03T23:31:47.102Z,10.00
2023-05-03T23:34:15.727Z,9.35
2023-05-03T23:36:44.401Z,8.45
2023-05-03T23:39:13.174Z,7.65
2023-05-03T23:41:41.718Z,8.40
2023-05-03T23:44:09.879Z,7.22
2023-05-03T23:46:39.609Z,7.28
2023-05-03T23:49:07.922Z,6.95
2023-05-03T23:51:36.463Z,7.30
2023-05-03T23:54:04.628Z,8.02
2023-05-03T23:56:33.212Z,7.75
2023-05-03T23:59:01.940Z,7.00
